Details From LIRN - Naples Capodichino
To LICC - Catania Fontanarossa
Flight Number -
Tags Routegen Generated
Created
Modified
Stats Distance 208 nm / 386 km
Max Altitude 0 ft / 0 m
Waypoints 2
Social Downloads 7
Likes 0
Share VATSIM

Download

Looking for another format? Having issues loading an existing format? Contact us
Advertisement - Login to hide

Notes

Generated

Route

LIRN LICC

ID Type Via Altitude Latitude Longitude Leg Dist Tot Dist Heading (true) Name
O LIRN APT - 0 ft / 0 m 40.87979˚ 14.27754˚ - 0 nm - -
O LICC APT - 0 ft / 0 m 37.46563˚ 15.05269˚ 208 nm 208 nm 170° / 170° -

Altitude Profile

Advertisement - Login to hide

Weather


0- 5 10 15 20 25 30 35+ Temperature / ° C

Clouds and Precipitation
Forecast for 2018-05-21 06:00 UTC. Updated an hour ago

Ground ~20,000 ft ~40,000 ft Winds

LIRN

Details ICAO LIRN (NAP)
Name Naples Capodichino
Region Italy
Timezone Europe/Rome (UTC+2.0)
Stats Elevation 294 ft / 90 m (AMSL)
Location 40.886032° 14.290783°
Runways 1
Magnetic Variation 3.352° E

METAR

LIRN 210350Z 30004KT 280V360 CAVOK 19/13 Q1011 NOSIG

Decode

TAF

TAF LIRN 202300Z 2100/2124 VRB05KT 9999 SCT030 TEMPO 2109/2115 4000 SHRA BECMG 2110/2112 23010KT BECMG 2118/2120 VRB05KT

Decode

Departure Runways

ID Width Length Bearing (true) Bearing (mag) Surface Threshold Offset Overrun Length
06 148 ft / 45 m 8,612 ft / 2,625 m 58.03° 54.68° Asphalt 1,309 ft / 399 m 0 ft / 0 m
24 148 ft / 45 m 8,612 ft / 2,625 m 238.05° 234.70° Asphalt 624 ft / 190 m 0 ft / 0 m

LICC

Details ICAO LICC (CTA)
Name Catania Fontanarossa
Region Italy
Timezone Europe/Rome (UTC+2.0)
Stats Elevation 39 ft / 12 m (AMSL)
Location 37.466779° 15.066401°
Runways 1
Magnetic Variation 3.257° E

METAR

LICC 210350Z 27002KT 9999 BKN100 15/14 Q1012

Decode

TAF

TAF LICC 202300Z 2100/2124 25006KT 9999 SCT030 BECMG 2110/2112 08012KT BECMG 2118/2120 VRB05KT

Decode

Destination Runways

ID Width Length Bearing (true) Bearing (mag) Surface Threshold Offset Overrun Length
08 148 ft / 45 m 7,985 ft / 2,434 m 83.94° 80.68° Asphalt 312 ft / 95 m 0 ft / 0 m
26 148 ft / 45 m 7,985 ft / 2,434 m 263.95° 260.69° Asphalt 279 ft / 85 m 0 ft / 0 m

Approach Navaids

Runway Type Ident Frequency Range Bearing (true) Bearing (mag) Slope Elevation
08 Localiser CTN 109.90 MHz 18 nm / 33 km 83.98° 80.72° - 25 ft / 8 m (AMSL)
08 Glidescope CTN 109.90 MHz 10 nm / 19 km 83.94° 80.69° 3.00° 25 ft / 8 m (AMSL)
08 DME CTN 109.90 MHz 18 nm / 33 km - - - 45 ft / 14 m (AMSL)

Popular Alternatives